Time;durP1;ratioP1;P1;durP2;ratioP2;P2;SDS_P1;SDS_P2;PMS_P1;PMS_P2;Temp;Humidity;BMP_temperature;BMP_pressure;BME280_temperature;BME280_humidity;BME280_pressure;Samples;Min_cycle;Max_cycle;Signal;HPM_P1;HPM_P2
2021/04/01 00:03:12;;;;;;;6.25;4.60;;;;;;;19.72;50.27;102085.28;6266007;22;20004;-83
2021/04/01 00:05:48;;;;;;;6.68;4.95;;;;;;;19.71;50.36;102087.00;6290670;22;20031;-81
2021/04/01 00:09:10;;;;;;;5.75;4.22;;;;;;;19.71;50.33;102070.47;6281472;22;20042;-82
2021/04/01 00:14:52;;;;;;;5.78;4.90;;;;;;;19.71;50.35;102079.19;6303310;22;20019;-82
2021/04/01 00:17:48;;;;;;;6.90;4.93;;;;;;;19.72;50.42;102082.66;6286567;22;20079;-84
2021/04/01 00:23:35;;;;;;;6.68;4.75;;;;;;;19.70;50.37;102074.81;6285699;22;20052;-82
2021/04/01 00:26:44;;;;;;;5.75;4.88;;;;;;;19.71;50.53;102075.72;6183221;23;20013;-81
2021/04/01 00:29:36;;;;;;;6.43;4.60;;;;;;;19.70;50.44;102080.03;6121729;23;20002;-82
2021/04/01 00:32:20;;;;;;;5.80;4.60;;;;;;;19.70;50.74;102073.94;6085414;23;20092;-83
2021/04/01 00:35:33;;;;;;;5.78;4.50;;;;;;;19.69;50.33;102077.41;6065187;23;20078;-83
2021/04/01 00:38:16;;;;;;;6.80;4.80;;;;;;;19.70;50.59;102090.47;5963520;23;20060;-81
2021/04/01 00:44:15;;;;;;;6.60;5.07;;;;;;;19.70;50.70;102084.41;6275678;22;20051;-81
2021/04/01 00:47:27;;;;;;;7.28;4.63;;;;;;;19.70;50.67;102080.03;6283533;22;20019;-80
2021/04/01 00:56:57;;;;;;;5.65;4.45;;;;;;;19.69;50.58;102109.66;6305512;22;20042;-83
2021/04/01 00:59:27;;;;;;;6.75;5.15;;;;;;;19.67;50.78;102105.25;6303669;22;20015;-81
2021/04/01 01:05:15;;;;;;;7.25;4.88;;;;;;;19.66;50.72;102098.28;6212872;23;20027;-81
2021/04/01 01:07:43;;;;;;;6.47;4.85;;;;;;;19.66;50.59;102098.28;6188009;23;20005;-80
2021/04/01 01:16:28;;;;;;;6.57;4.88;;;;;;;19.66;50.64;102099.19;6298429;22;20039;-81
2021/04/01 01:19:16;;;;;;;7.13;4.57;;;;;;;19.64;50.63;102098.31;6275006;22;20022;-87
2021/04/01 01:25:56;;;;;;;7.18;4.90;;;;;;;19.65;50.70;102093.94;6287851;22;20031;-80
2021/04/01 01:29:08;;;;;;;8.43;5.03;;;;;;;19.64;50.76;102095.69;6297200;22;20011;-80
2021/04/01 01:31:49;;;;;;;6.22;4.90;;;;;;;19.62;50.82;102092.19;6303789;22;20016;-80
2021/04/01 01:34:37;;;;;;;7.68;5.53;;;;;;;19.61;50.75;102087.81;6211644;23;20049;-81
2021/04/01 01:37:30;;;;;;;6.53;5.18;;;;;;;19.63;50.76;102087.84;6226960;22;20010;-82
2021/04/01 01:40:25;;;;;;;7.22;5.30;;;;;;;19.62;50.63;102099.13;6300510;22;20027;-80
2021/04/01 01:43:29;;;;;;;7.00;5.15;;;;;;;19.63;50.81;102085.22;6271458;22;20004;-83
2021/04/01 01:49:19;;;;;;;7.05;5.68;;;;;;;19.59;50.75;102084.34;6272113;22;20016;-81
2021/04/01 01:51:46;;;;;;;6.65;5.07;;;;;;;19.59;50.77;102088.69;6272938;22;20052;-81
2021/04/01 01:54:52;;;;;;;6.55;5.00;;;;;;;19.59;50.75;102096.53;6223450;23;19992;-82
2021/04/01 01:57:19;;;;;;;7.38;5.38;;;;;;;19.60;50.64;102108.72;6247486;22;20007;-80
2021/04/01 01:59:45;;;;;;;7.05;5.00;;;;;;;19.58;50.61;102100.91;6222791;23;20008;-85
2021/04/01 02:02:24;;;;;;;7.78;5.43;;;;;;;19.60;50.69;102104.38;6219372;23;20107;-80
2021/04/01 02:11:29;;;;;;;7.47;5.45;;;;;;;19.57;50.67;102098.28;6272937;23;20050;-80
2021/04/01 03:17:19;;;;;;;8.30;6.15;;;;;;;19.49;51.04;102088.69;6289939;22;20015;-81
2021/04/01 03:20:25;;;;;;;8.95;5.43;;;;;;;19.48;50.95;102086.06;6250847;22;20027;-82
2021/04/01 03:23:00;;;;;;;8.00;6.03;;;;;;;19.48;50.88;102102.59;6236718;22;20021;-83
2021/04/01 03:25:37;;;;;;;8.55;5.72;;;;;;;19.46;50.95;102106.94;6246608;22;20015;-81
2021/04/01 03:28:06;;;;;;;8.02;6.00;;;;;;;19.46;51.02;102112.16;6271256;22;20067;-81
2021/04/01 03:35:54;;;;;;;8.52;6.22;;;;;;;19.46;50.92;102098.25;6289761;22;20019;-83
2021/04/01 03:38:46;;;;;;;9.13;6.18;;;;;;;19.45;50.82;102096.50;6209755;23;20080;-81
2021/04/01 03:41:21;;;;;;;7.82;5.88;;;;;;;19.46;51.03;102106.94;6197680;22;20008;-81
2021/04/01 03:43:52;;;;;;;8.18;5.20;;;;;;;19.44;50.76;102102.59;6269381;22;19992;-81
2021/04/01 03:46:56;;;;;;;8.35;5.63;;;;;;;19.46;50.97;102104.31;6274537;23;19980;-81
2021/04/01 03:49:24;;;;;;;8.07;5.93;;;;;;;19.44;50.92;102106.06;6269211;22;20049;-82
2021/04/01 04:17:51;;;;;;;8.40;6.60;;;;;;;19.39;50.72;102122.59;6265490;22;20040;-81
2021/04/01 04:20:28;;;;;;;8.38;6.38;;;;;;;19.38;50.87;102126.06;6221638;23;20023;-81
2021/04/01 04:23:18;;;;;;;8.90;6.45;;;;;;;19.40;50.98;102127.81;6245908;23;20008;-82
2021/04/01 04:25:47;;;;;;;9.05;6.80;;;;;;;19.39;50.93;102122.59;6246118;23;20026;-82
2021/04/01 04:34:30;;;;;;;9.35;6.55;;;;;;;19.36;50.75;102130.41;6284228;22;20030;-82
2021/04/01 04:43:37;;;;;;;8.88;6.82;;;;;;;19.37;50.61;102151.28;6279004;22;20046;-79
2021/04/01 04:49:16;;;;;;;9.27;6.38;;;;;;;19.35;50.67;102157.38;6208587;23;20103;-82
2021/04/01 04:52:21;;;;;;;7.78;6.55;;;;;;;19.37;50.66;102163.47;6231310;22;20011;-81
2021/04/01 04:54:48;;;;;;;7.88;6.15;;;;;;;19.32;50.46;102156.50;6213450;23;20071;-83
2021/04/01 05:06:53;;;;;;;9.38;7.20;;;;;;;19.38;50.69;102170.44;6297876;22;20032;-85
2021/04/01 05:12:33;;;;;;;21.50;13.25;;;;;;;19.39;50.59;102167.84;6304644;22;20019;-83
2021/04/01 05:15:49;;;;;;;20.73;13.75;;;;;;;19.38;50.16;102184.38;6274957;22;20007;-82
2021/04/01 05:22:01;;;;;;;22.25;12.93;;;;;;;19.42;50.32;102187.84;6298121;22;20161;-82
2021/04/01 05:25:05;;;;;;;23.38;13.57;;;;;;;19.45;50.28;102200.94;6181429;23;20029;-81
2021/04/01 05:27:53;;;;;;;21.73;14.10;;;;;;;19.47;50.27;102189.63;6181614;23;19989;-82
2021/04/01 05:30:22;;;;;;;20.40;12.90;;;;;;;19.48;50.22;102193.09;6154724;23;20013;-83
2021/04/01 05:32:48;;;;;;;24.38;13.70;;;;;;;19.53;49.95;102207.03;6150340;23;20012;-81
2021/04/01 05:38:42;;;;;;;21.40;12.20;;;;;;;19.57;49.81;102200.09;6116415;23;20025;-82
2021/04/01 05:41:51;;;;;;;16.77;11.48;;;;;;;19.60;49.78;102207.94;6086717;23;20001;-83
2021/04/01 05:44:40;;;;;;;17.52;11.85;;;;;;;19.63;49.53;102202.75;6030092;23;20008;-84
2021/04/01 05:47:23;;;;;;;18.15;11.57;;;;;;;19.67;49.78;102230.63;6004081;23;20068;-83
2021/04/01 06:04:29;;;;;;;13.90;9.23;;;;;;;19.91;49.33;102240.31;6238389;23;20091;-87
2021/04/01 06:07:09;;;;;;;13.18;9.52;;;;;;;19.94;49.29;102240.31;6235879;23;20008;-85
2021/04/01 06:09:45;;;;;;;12.48;9.70;;;;;;;19.98;49.15;102238.59;6259856;23;20064;-84
2021/04/01 06:12:14;;;;;;;11.90;8.80;;;;;;;20.01;48.97;102242.09;6234488;23;20015;-83
2021/04/01 06:14:49;;;;;;;12.02;8.60;;;;;;;20.07;49.03;102239.47;6233549;23;20086;-87
2021/04/01 06:17:18;;;;;;;12.75;8.88;;;;;;;20.10;48.94;102247.31;6230073;23;20008;-87
2021/04/01 06:19:47;;;;;;;12.10;9.20;;;;;;;20.16;48.59;102253.44;6229038;23;20019;-89
2021/04/01 06:22:22;;;;;;;13.57;9.35;;;;;;;20.20;48.69;102258.66;6225506;23;20012;-87
2021/04/01 06:24:49;;;;;;;11.63;8.80;;;;;;;20.23;48.47;102271.75;6230611;23;20023;-92
2021/04/01 06:27:24;;;;;;;10.15;8.05;;;;;;;20.22;48.48;102270.00;6268266;23;20055;-89
2021/04/01 06:33:11;;;;;;;10.57;8.00;;;;;;;20.08;48.73;102293.50;6193551;23;20488;-89
2021/04/01 06:35:55;;;;;;;10.27;8.50;;;;;;;19.98;48.87;102291.69;6224227;23;20012;-87
2021/04/01 06:38:24;;;;;;;13.30;9.20;;;;;;;19.91;49.18;102303.00;6264924;23;20004;-91
2021/04/01 06:41:19;;;;;;;14.05;9.00;;;;;;;19.87;49.23;102311.69;6238210;23;20075;-90
2021/04/01 06:45:03;;;;;;;11.52;9.25;;;;;;;19.80;49.40;102317.78;6267984;23;20060;-90
2021/04/01 06:47:58;;;;;;;12.10;8.88;;;;;;;19.78;49.46;102329.94;6161386;23;20024;-88
2021/04/01 06:51:06;;;;;;;11.90;8.70;;;;;;;19.79;49.21;102334.28;6178543;23;20012;-83
2021/04/01 06:54:23;;;;;;;11.95;8.75;;;;;;;19.77;49.38;102343.84;6159660;23;20013;-82
2021/04/01 07:03:38;;;;;;;11.18;7.85;;;;;;;20.31;48.06;102335.34;6294157;22;20453;-92
2021/04/01 07:06:06;;;;;;;11.32;8.60;;;;;;;20.67;47.34;102344.19;6207222;22;20020;-92
2021/04/01 07:11:34;;;;;;;10.27;7.20;;;;;;;21.22;45.80;102347.72;6279084;22;20038;-92
2021/04/01 07:14:12;;;;;;;8.32;7.30;;;;;;;21.17;46.06;102360.81;6280246;22;20430;-89
2021/04/01 07:48:46;;;;;;;7.57;4.70;;;;;;;22.89;40.93;102372.44;6298779;22;20011;-87
2021/04/01 07:51:51;;;;;;;7.65;4.45;;;;;;;22.94;40.60;102371.50;6294864;22;20000;-86
2021/04/01 07:54:28;;;;;;;10.32;4.72;;;;;;;23.03;39.98;102370.56;6289971;22;20000;-84
2021/04/01 08:00:14;;;;;;;5.68;4.15;;;;;;;23.12;39.76;102378.38;6281213;22;20354;-85
2021/04/01 08:02:58;;;;;;;5.97;4.65;;;;;;;23.06;39.81;102388.06;6261689;22;20011;-82
2021/04/01 08:05:24;;;;;;;;;;;;;;;22.78;40.65;102383.88;6258200;22;20000;-88
2021/04/01 08:08:02;;;;;;;7.00;4.18;;;;;;;22.97;40.34;102381.09;6293596;22;19907;-88
2021/04/01 08:10:32;;;;;;;6.30;4.47;;;;;;;22.91;40.41;102389.03;6284731;22;20065;-84
2021/04/01 08:13:07;;;;;;;7.35;4.10;;;;;;;22.94;40.07;102399.50;6278055;22;20046;-81
2021/04/01 08:15:37;;;;;;;6.35;3.92;;;;;;;22.95;40.10;102399.50;6250930;22;20102;-87
2021/04/01 08:18:14;;;;;;;6.25;3.60;;;;;;;22.86;40.40;102402.16;6251956;22;20012;-87
2021/04/01 08:20:45;;;;;;;7.32;3.90;;;;;;;22.85;40.25;102402.19;6283453;22;20004;-86
2021/04/01 08:23:20;;;;;;;7.28;3.72;;;;;;;22.83;40.51;102402.19;6262120;22;20395;-88
2021/04/01 08:34:38;;;;;;;6.30;3.25;;;;;;;22.32;41.36;102415.63;6283659;22;20071;-83
2021/04/01 08:37:00;;;;;;;5.30;3.28;;;;;;;22.23;41.51;102422.63;6282186;22;20008;-82
2021/04/01 08:39:26;;;;;;;5.80;3.28;;;;;;;22.12;41.96;102420.00;6231286;22;20035;-82
2021/04/01 08:42:08;;;;;;;8.07;3.55;;;;;;;21.98;42.20;102422.69;6257497;22;20007;-85
2021/04/01 08:44:58;;;;;;;5.80;3.17;;;;;;;21.89;42.43;102430.59;6279622;22;20003;-89
2021/04/01 08:47:32;;;;;;;7.30;3.50;;;;;;;21.76;42.68;102430.59;6253681;22;20010;-89
2021/04/01 08:50:04;;;;;;;5.60;3.17;;;;;;;21.69;43.02;102430.63;6255935;22;20052;-86
2021/04/01 08:53:12;;;;;;;4.15;2.80;;;;;;;21.59;43.15;102434.13;6282133;22;20003;-89
2021/04/01 08:55:41;;;;;;;6.18;3.42;;;;;;;21.51;43.32;102434.13;6254307;22;20019;-84
2021/04/01 08:58:19;;;;;;;7.05;3.20;;;;;;;21.44;43.60;102433.25;6278323;22;20023;-83
2021/04/01 09:00:44;;;;;;;6.28;3.33;;;;;;;21.41;43.55;102440.22;6277190;22;20382;-84
2021/04/01 09:03:15;;;;;;;4.53;2.80;;;;;;;21.33;43.74;102441.06;6277136;22;20003;-84
2021/04/01 09:05:53;;;;;;;5.43;3.30;;;;;;;21.28;43.83;102434.97;6252860;22;20059;-87
2021/04/01 09:08:24;;;;;;;5.20;3.10;;;;;;;21.25;43.87;102436.72;6276217;22;20008;-81
2021/04/01 09:10:54;;;;;;;6.20;3.53;;;;;;;21.22;44.14;102444.56;6276525;22;20000;-80
2021/04/01 09:13:26;;;;;;;4.80;2.85;;;;;;;21.15;44.25;102444.56;6275584;22;20006;-80
2021/04/01 09:15:58;;;;;;;4.70;3.00;;;;;;;21.11;44.33;102452.41;6250120;22;20008;-82
2021/04/01 09:18:26;;;;;;;4.72;3.10;;;;;;;21.09;44.80;102449.78;6225873;22;20019;-83
2021/04/01 09:20:53;;;;;;;5.30;3.03;;;;;;;21.03;44.39;102457.63;6249457;22;20486;-81
2021/04/01 09:23:22;;;;;;;6.80;3.00;;;;;;;20.99;44.61;102461.13;6250291;22;20004;-86
2021/04/01 09:25:49;;;;;;;5.65;2.60;;;;;;;20.95;44.84;102457.63;6227680;22;20022;-82
2021/04/01 09:28:15;;;;;;;5.00;2.97;;;;;;;20.91;44.92;102461.09;6277627;22;20423;-85
2021/04/01 09:30:42;;;;;;;4.70;3.13;;;;;;;20.90;45.05;102476.78;6279803;22;19999;-81
2021/04/01 09:33:10;;;;;;;5.05;3.00;;;;;;;20.87;45.17;102461.09;6250326;22;20431;-84
2021/04/01 09:35:37;;;;;;;5.68;2.80;;;;;;;20.84;45.15;102469.81;6250167;22;20012;-82
2021/04/01 09:38:07;;;;;;;4.68;2.40;;;;;;;20.81;45.14;102477.66;6249916;22;20023;-80
2021/04/01 09:40:42;;;;;;;6.43;3.05;;;;;;;20.80;45.28;102480.28;6250016;22;20004;-86
2021/04/01 09:43:33;;;;;;;4.50;2.75;;;;;;;20.77;45.70;102472.41;6278547;22;20082;-84
2021/04/01 09:46:13;;;;;;;4.15;2.67;;;;;;;20.73;45.64;102472.41;6279353;22;20043;-83
2021/04/01 09:48:58;;;;;;;5.90;2.70;;;;;;;20.71;45.64;102473.28;6251672;22;20449;-85
2021/04/01 09:51:29;;;;;;;3.53;2.00;;;;;;;20.67;45.44;102469.75;6250923;22;20079;-86
2021/04/01 09:53:55;;;;;;;4.68;2.65;;;;;;;20.66;45.67;102474.97;6277411;22;20427;-87
2021/04/01 09:56:22;;;;;;;5.05;2.65;;;;;;;20.66;45.88;102482.81;6250419;22;20042;-90
2021/04/01 09:58:50;;;;;;;4.53;2.35;;;;;;;20.63;45.59;102475.84;6250268;22;20023;-85
2021/04/01 10:01:33;;;;;;;4.75;2.22;;;;;;;20.60;45.79;102472.34;6223936;22;20023;-90
2021/04/01 10:04:11;;;;;;;4.32;2.15;;;;;;;20.61;45.77;102479.34;6276555;22;20016;-89
2021/04/01 10:06:52;;;;;;;5.25;2.33;;;;;;;20.59;45.97;102484.53;6277285;22;20004;-84
2021/04/01 10:09:27;;;;;;;4.32;2.22;;;;;;;20.56;45.94;102474.06;6255820;22;20443;-90
2021/04/01 10:12:05;;;;;;;4.28;2.25;;;;;;;20.56;45.88;102484.50;6288441;22;19999;-87
2021/04/01 10:14:32;;;;;;;3.80;2.45;;;;;;;20.54;45.90;102483.63;6226252;22;20030;-83
2021/04/01 10:17:09;;;;;;;3.75;2.10;;;;;;;20.52;46.01;102494.06;6285266;22;20000;-82
2021/04/01 10:19:40;;;;;;;4.18;2.33;;;;;;;20.53;46.05;102492.31;6254265;22;20008;-80
2021/04/01 10:22:06;;;;;;;4.50;2.20;;;;;;;20.49;45.92;102499.31;6254800;22;20007;-83
2021/04/01 10:24:35;;;;;;;4.57;2.00;;;;;;;20.49;45.90;102507.16;6285897;22;20083;-82
2021/04/01 10:27:27;;;;;;;4.95;2.15;;;;;;;20.49;46.02;102509.78;6288359;22;20007;-81
2021/04/01 10:29:59;;;;;;;5.35;2.10;;;;;;;20.48;45.91;102505.38;6292137;22;20008;-81
2021/04/01 10:32:40;;;;;;;5.05;2.30;;;;;;;20.45;45.83;102510.63;6292465;22;20000;-80
2021/04/01 10:35:15;;;;;;;5.00;2.05;;;;;;;20.47;45.92;102518.44;6290325;22;20030;-83
2021/04/01 10:37:49;;;;;;;4.93;2.15;;;;;;;20.48;46.04;102507.13;6263198;22;20011;-82
2021/04/01 10:40:17;;;;;;;9.63;2.03;;;;;;;20.46;46.03;102514.09;6262764;22;20003;-80
2021/04/01 10:43:04;;;;;;;4.43;1.70;;;;;;;20.45;46.17;102514.97;6261211;22;20003;-80
2021/04/01 10:45:41;;;;;;;4.55;2.10;;;;;;;20.41;46.16;102515.81;6291250;22;20008;-82
2021/04/01 10:48:31;;;;;;;5.10;1.70;;;;;;;20.41;46.27;102519.31;6291548;22;20019;-84
2021/04/01 10:51:07;;;;;;;4.47;2.10;;;;;;;20.40;46.22;102519.28;6264480;22;20007;-80
2021/04/01 10:53:40;;;;;;;4.03;1.67;;;;;;;20.39;46.09;102523.66;6238839;22;20027;-81
2021/04/01 10:56:09;;;;;;;4.78;1.77;;;;;;;20.40;46.16;102532.38;6238867;22;20024;-82
2021/04/01 10:58:46;;;;;;;5.03;2.10;;;;;;;20.41;46.08;102534.13;6288914;22;20018;-81
2021/04/01 11:01:11;;;;;;;4.15;2.10;;;;;;;20.40;46.15;102532.38;6265047;22;20012;-86
2021/04/01 11:03:43;;;;;;;4.25;2.20;;;;;;;20.39;46.17;102535.84;6263894;22;20046;-83
2021/04/01 11:06:11;;;;;;;3.05;1.52;;;;;;;20.39;46.07;102536.72;6288271;22;20000;-84
2021/04/01 11:08:43;;;;;;;4.30;2.00;;;;;;;20.39;45.82;102539.34;6261517;22;20018;-88
2021/04/01 11:11:10;;;;;;;4.60;2.10;;;;;;;20.38;46.07;102528.88;6290325;22;20003;-80
2021/04/01 11:13:38;;;;;;;4.40;1.75;;;;;;;20.35;46.16;102533.22;6288751;22;20030;-83
2021/04/01 11:16:08;;;;;;;4.43;1.80;;;;;;;20.34;46.04;102541.06;6292176;22;20000;-82
2021/04/01 11:18:38;;;;;;;5.45;1.92;;;;;;;20.32;46.27;102546.28;6291617;22;20103;-87
2021/04/01 11:21:08;;;;;;;4.03;1.80;;;;;;;20.34;46.30;102549.78;6265353;22;20027;-84
2021/04/01 11:23:34;;;;;;;3.72;1.70;;;;;;;20.39;46.35;102551.53;6259195;22;20011;-82
2021/04/01 11:26:02;;;;;;;8.23;2.38;;;;;;;20.43;46.20;102553.31;6285494;22;20026;-84
2021/04/01 11:28:51;;;;;;;4.97;1.92;;;;;;;20.38;46.02;102560.25;6253882;22;20342;-86
2021/04/01 11:31:35;;;;;;;3.38;1.67;;;;;;;20.35;46.11;102567.19;6256080;22;20004;-86
2021/04/01 11:34:01;;;;;;;4.97;1.83;;;;;;;20.34;45.80;102565.47;6258772;22;20423;-81
2021/04/01 11:36:31;;;;;;;6.13;1.65;;;;;;;20.28;45.65;102565.41;6255613;22;20015;-83
2021/04/01 11:38:58;;;;;;;5.13;1.95;;;;;;;20.26;45.49;102568.88;6285128;22;19988;-82
2021/04/01 11:41:30;;;;;;;3.92;1.60;;;;;;;20.22;45.56;102581.06;6259029;22;19999;-83
2021/04/01 11:44:03;;;;;;;5.95;2.05;;;;;;;20.20;45.05;102564.47;6256505;22;20020;-83
2021/04/01 11:46:31;;;;;;;10.68;2.40;;;;;;;20.15;44.95;102560.97;6284834;22;20003;-84
2021/04/01 11:48:58;;;;;;;9.30;2.17;;;;;;;20.16;44.87;102567.94;6256913;22;20014;-86
2021/04/01 11:51:28;;;;;;;7.93;2.35;;;;;;;20.17;44.65;102566.22;6285285;22;20485;-84
2021/04/01 11:53:53;;;;;;;8.38;2.17;;;;;;;20.20;44.49;102563.63;6256712;22;20031;-83
2021/04/01 11:56:22;;;;;;;7.70;2.15;;;;;;;20.22;44.52;102562.75;6281799;22;19999;-87
2021/04/01 11:58:47;;;;;;;6.50;2.05;;;;;;;20.24;44.66;102568.88;6227990;22;20058;-84
2021/04/01 12:01:24;;;;;;;6.55;2.22;;;;;;;20.24;44.44;102566.25;6255440;22;20035;-86
2021/04/01 12:04:05;;;;;;;7.13;2.13;;;;;;;20.24;44.60;102576.72;6280436;22;20331;-89
2021/04/01 12:06:31;;;;;;;7.70;2.33;;;;;;;20.26;44.69;102568.88;6284332;22;20405;-83
2021/04/01 12:08:57;;;;;;;4.93;1.70;;;;;;;20.27;44.84;102579.38;6284919;22;20043;-84
2021/04/01 12:11:28;;;;;;;4.82;1.80;;;;;;;20.27;44.84;102581.97;6260167;22;20004;-82
2021/04/01 12:14:06;;;;;;;4.75;2.00;;;;;;;20.28;44.87;102573.25;6288352;22;20007;-86
2021/04/01 12:16:31;;;;;;;6.05;1.90;;;;;;;20.27;44.89;102574.13;6256122;22;20004;-80
2021/04/01 12:18:57;;;;;;;4.55;1.70;;;;;;;20.25;44.92;102575.88;6285365;22;20015;-88
2021/04/01 12:21:23;;;;;;;5.82;2.00;;;;;;;20.27;44.87;102568.91;6258104;22;20087;-85
2021/04/01 12:23:51;;;;;;;4.68;1.60;;;;;;;20.27;45.02;102571.53;6281084;22;19999;-88
2021/04/01 12:26:17;;;;;;;5.07;1.75;;;;;;;20.29;45.12;102574.13;6282516;22;20003;-86
2021/04/01 12:28:42;;;;;;;6.45;1.65;;;;;;;20.27;45.00;102568.91;6260411;22;20016;-87
2021/04/01 12:31:15;;;;;;;5.75;1.90;;;;;;;20.28;44.97;102583.72;6269702;22;20011;-82
2021/04/01 12:33:50;;;;;;;5.80;1.85;;;;;;;20.27;45.11;102584.59;6277092;22;20061;-83
2021/04/01 12:36:32;;;;;;;5.90;1.80;;;;;;;20.27;45.17;102589.81;6286785;22;20000;-81
2021/04/01 12:38:57;;;;;;;5.20;1.52;;;;;;;20.24;45.25;102581.06;6284487;22;20432;-84
2021/04/01 12:41:35;;;;;;;4.32;1.73;;;;;;;20.27;45.18;102586.31;6284087;22;19999;-80
2021/04/01 12:44:00;;;;;;;5.05;1.63;;;;;;;20.25;45.07;102583.72;6284568;22;20427;-82
2021/04/01 12:46:56;;;;;;;4.65;1.60;;;;;;;20.26;45.32;102595.03;6285185;22;19999;-81
2021/04/01 12:49:30;;;;;;;4.20;1.65;;;;;;;20.26;45.25;102595.03;6227023;22;20019;-82
2021/04/01 12:52:00;;;;;;;4.68;1.65;;;;;;;20.25;45.46;102591.56;6233254;22;20323;-80
2021/04/01 12:54:32;;;;;;;5.47;1.70;;;;;;;20.24;45.30;102588.91;6284450;22;20019;-81
2021/04/01 12:57:02;;;;;;;6.00;1.77;;;;;;;20.24;45.44;102594.16;6281560;22;20352;-84
2021/04/01 12:59:50;;;;;;;3.92;1.65;;;;;;;20.24;45.49;102599.38;6280518;22;20011;-86
2021/04/01 13:02:18;;;;;;;5.13;1.48;;;;;;;20.26;45.48;102610.72;6286150;22;20012;-84
2021/04/01 13:04:51;;;;;;;5.53;1.70;;;;;;;20.22;45.65;102596.75;6256945;22;20029;-89
2021/04/01 13:12:15;;;;;;;4.43;1.50;;;;;;;20.17;45.47;102605.44;6283242;22;20008;-81
2021/04/01 13:14:42;;;;;;;4.47;1.60;;;;;;;20.17;45.35;102602.81;6284191;22;20074;-83
2021/04/01 13:17:09;;;;;;;4.60;1.58;;;;;;;20.14;45.07;102611.47;6256221;22;20007;-81
2021/04/01 13:19:35;;;;;;;4.30;1.67;;;;;;;20.12;44.82;102602.75;6284423;22;20442;-79
2021/04/01 13:27:13;;;;;;;6.55;1.85;;;;;;;20.10;44.54;102605.38;6289581;22;20104;-82
2021/04/01 13:29:43;;;;;;;7.40;2.05;;;;;;;20.10;44.54;102605.38;6288325;22;20008;-82
2021/04/01 13:38:01;;;;;;;4.85;1.75;;;;;;;20.09;43.82;102615.81;6290145;22;20077;-84
2021/04/01 13:40:28;;;;;;;7.78;2.30;;;;;;;20.11;43.75;102614.09;6283377;22;20004;-85
2021/04/01 13:43:00;;;;;;;7.22;1.90;;;;;;;20.08;43.73;102601.88;6258089;22;20007;-84
2021/04/01 13:45:26;;;;;;;6.95;2.05;;;;;;;20.09;43.44;102607.97;6284680;22;20082;-82
2021/04/01 13:47:58;;;;;;;7.05;2.50;;;;;;;20.08;43.72;102621.91;6257924;22;20011;-82
2021/04/01 13:50:26;;;;;;;5.80;1.83;;;;;;;20.10;43.36;102615.84;6286540;22;20078;-82
2021/04/01 13:56:22;;;;;;;8.70;2.10;;;;;;;20.12;43.37;102615.81;6267442;22;20389;-82
2021/04/01 14:10:09;;;;;;;6.63;2.00;;;;;;;20.20;43.43;102610.66;6258752;22;20117;-84
2021/04/01 14:12:35;;;;;;;5.15;1.73;;;;;;;20.20;43.38;102615.91;6256231;22;20026;-86
2021/04/01 14:15:02;;;;;;;7.13;1.90;;;;;;;20.19;43.58;102599.34;6282273;22;20031;-86
2021/04/01 14:17:28;;;;;;;5.38;1.75;;;;;;;20.21;43.54;102609.78;6253980;22;20502;-86
2021/04/01 14:19:55;;;;;;;4.60;1.70;;;;;;;20.21;43.50;102602.84;6281529;22;20007;-85
2021/04/01 14:22:27;;;;;;;5.07;1.77;;;;;;;20.23;43.62;102600.22;6278403;22;20004;-85
2021/04/01 14:24:58;;;;;;;5.18;1.60;;;;;;;20.24;43.81;102602.84;6283650;22;20014;-85
2021/04/01 14:29:57;;;;;;;6.07;1.83;;;;;;;20.24;43.81;102605.47;6253772;22;20446;-86
2021/04/01 14:32:25;;;;;;;5.13;1.57;;;;;;;20.24;44.01;102592.41;6233523;22;20004;-86
2021/04/01 14:34:59;;;;;;;4.90;1.50;;;;;;;20.26;44.10;102600.25;6229325;22;20697;-82
2021/04/01 14:37:34;;;;;;;6.85;1.73;;;;;;;20.26;44.37;102601.13;6280634;22;20000;-81
2021/04/01 14:40:03;;;;;;;7.10;1.80;;;;;;;20.35;44.60;102605.56;6280981;22;20320;-79
2021/04/01 14:42:51;;;;;;;6.63;1.70;;;;;;;20.29;45.07;102606.38;6278605;22;20042;-79
2021/04/01 14:45:16;;;;;;;8.13;2.00;;;;;;;20.28;44.96;102602.03;6278307;22;20011;-84
2021/04/01 14:47:42;;;;;;;5.70;1.63;;;;;;;20.28;44.97;102598.53;6281485;22;20070;-84
2021/04/01 14:50:09;;;;;;;8.13;1.80;;;;;;;20.29;45.30;102600.28;6259397;22;20016;-86
2021/04/01 14:52:38;;;;;;;7.50;1.60;;;;;;;20.26;45.41;102598.53;6290053;22;20370;-85
2021/04/01 14:55:08;;;;;;;4.75;1.60;;;;;;;20.27;45.21;102595.06;6273260;22;20055;-90
2021/04/01 14:57:35;;;;;;;9.07;2.00;;;;;;;20.28;45.32;102595.91;6264096;22;20004;-84
2021/04/01 15:00:10;;;;;;;6.28;1.90;;;;;;;20.27;45.28;102602.00;6283710;22;20016;-87
2021/04/01 15:02:37;;;;;;;6.65;1.52;;;;;;;20.27;45.28;102597.66;6280504;22;20007;-89
2021/04/01 15:05:04;;;;;;;3.72;1.42;;;;;;;20.25;45.20;102602.00;6254044;22;20011;-85
2021/04/01 15:07:30;;;;;;;6.47;1.65;;;;;;;20.23;45.41;102595.00;6252620;22;20038;-87
2021/04/01 15:09:56;;;;;;;4.55;1.60;;;;;;;20.25;45.29;102594.16;6281972;22;20031;-88
2021/04/01 15:12:22;;;;;;;5.28;1.45;;;;;;;20.26;45.67;102592.41;6252606;22;20419;-86
2021/04/01 15:14:51;;;;;;;3.78;1.63;;;;;;;20.25;45.73;102586.31;6254424;22;20007;-81
2021/04/01 15:17:17;;;;;;;3.85;1.50;;;;;;;20.24;45.73;102587.16;6252768;22;20010;-83
2021/04/01 15:19:46;;;;;;;3.28;1.20;;;;;;;20.24;45.65;102584.56;6252411;22;20007;-86
2021/04/01 15:22:11;;;;;;;4.82;1.40;;;;;;;20.25;45.78;102588.94;6251525;22;20007;-81
2021/04/01 15:24:37;;;;;;;3.53;1.50;;;;;;;20.24;45.74;102588.91;6254837;22;20063;-86
2021/04/01 15:27:03;;;;;;;4.18;1.17;;;;;;;20.22;45.65;102586.28;6227267;22;20077;-91
2021/04/01 15:29:28;;;;;;;4.97;1.50;;;;;;;20.24;45.87;102586.31;6252015;22;20091;-84
2021/04/01 15:31:54;;;;;;;5.80;1.20;;;;;;;20.23;45.79;102587.16;6253101;22;20082;-87
2021/04/01 15:34:19;;;;;;;3.70;1.25;;;;;;;20.23;46.00;102598.50;6253604;22;20004;-88
2021/04/01 15:37:03;;;;;;;4.28;1.30;;;;;;;20.19;46.15;102596.72;6278999;22;20093;-82
2021/04/01 15:39:29;;;;;;;4.60;1.40;;;;;;;20.20;46.21;102595.84;6254498;22;20008;-83
2021/04/01 15:41:54;;;;;;;5.00;1.50;;;;;;;20.22;46.04;102594.13;6282572;22;20300;-87
2021/04/01 15:44:20;;;;;;;3.85;1.20;;;;;;;20.20;45.94;102592.38;6256252;22;20019;-86
2021/04/01 15:46:46;;;;;;;4.18;1.20;;;;;;;20.20;45.81;102598.47;6280060;22;20007;-87
2021/04/01 15:49:11;;;;;;;3.30;1.17;;;;;;;20.20;46.13;102598.47;6279901;22;20515;-85
2021/04/01 15:51:36;;;;;;;4.85;1.30;;;;;;;20.19;46.15;102601.09;6252667;22;20026;-89
2021/04/01 15:54:02;;;;;;;3.95;1.35;;;;;;;20.17;46.13;102601.06;6281531;22;20447;-91
2021/04/01 15:56:28;;;;;;;3.70;1.38;;;;;;;20.17;46.29;102602.81;6255286;22;20010;-83
2021/04/01 15:58:53;;;;;;;3.75;1.25;;;;;;;20.18;46.19;102604.56;6280780;22;20015;-87
2021/04/01 16:01:23;;;;;;;4.10;1.42;;;;;;;20.17;46.26;102611.53;6255538;22;20454;-85
2021/04/01 16:03:48;;;;;;;3.80;1.52;;;;;;;20.14;46.43;102601.94;6281222;22;20008;-83
2021/04/01 16:06:14;;;;;;;5.22;1.50;;;;;;;20.16;46.36;102614.13;6282158;22;20087;-84
2021/04/01 16:08:39;;;;;;;4.72;1.40;;;;;;;20.14;46.31;102617.63;6255378;22;20087;-79
2021/04/01 16:11:05;;;;;;;4.63;1.15;;;;;;;20.15;46.48;102613.25;6257188;22;20015;-80
2021/04/01 16:13:34;;;;;;;3.20;1.38;;;;;;;20.14;46.58;102609.78;6256785;22;20019;-87
2021/04/01 16:16:06;;;;;;;3.78;1.30;;;;;;;20.14;46.61;102609.78;6256179;22;20035;-84
2021/04/01 16:18:32;;;;;;;3.53;1.20;;;;;;;20.14;46.64;102611.47;6256726;22;20087;-83
2021/04/01 16:20:57;;;;;;;4.10;1.40;;;;;;;20.16;46.61;102619.34;6283038;22;20007;-86
2021/04/01 16:23:24;;;;;;;4.38;1.70;;;;;;;20.17;46.66;102615.88;6257170;22;20004;-87
2021/04/01 16:25:50;;;;;;;3.13;1.10;;;;;;;20.16;46.88;102622.81;6259516;22;20032;-84
2021/04/01 16:28:26;;;;;;;2.85;1.40;;;;;;;20.17;46.76;102621.13;6284179;22;20027;-86
2021/04/01 16:30:52;;;;;;;3.42;1.45;;;;;;;20.16;46.83;102627.19;6259821;22;20435;-88
2021/04/01 16:33:22;;;;;;;3.75;1.55;;;;;;;20.13;46.88;102618.47;6234384;22;20019;-83
2021/04/01 16:35:51;;;;;;;5.07;1.33;;;;;;;20.14;46.78;102621.94;6272920;22;20038;-83